BAW505 LPPT-EGLL
Flight info
| Callsign | BAW505 |
|---|---|
| Flight time | 2h 13m |
| Altitude | 36000 |
| Route | IXIDA DCT RIVRO DCT TOSDI DCT ZMR DCT NUBLO DCT RONSI DCT DELOG DCT DEGEX DCT OZNOH DCT JSY DCT REVTU/N0440F340 UP87 ROXOG |
| Aircraft | A320/M-SDE3FGHIKRWXY/S |
Departure
| Time | 2026-05-05 17:30 |
|---|---|
| Airport | Lisbon Humberto Delgado Airport (LPPT) |
Arrival
| Time | 2026-05-05 19:43 |
|---|---|
| Airport | London Heathrow Airport (EGLL) |
| Time | Latitude | Longitude | Altitude | Speed | Heading |
|---|---|---|---|---|---|
| 2026-05-05 16:49 | 38.77161 | -9.13124 | 333 ft | 0 kts | 79° |
| 2026-05-05 17:21 | 38.77160 | -9.13125 | 337 ft | 2 kts | 79° |
| 2026-05-05 17:21 | 38.77156 | -9.13152 | 335 ft | 3 kts | 71° |
| 2026-05-05 17:21 | 38.77147 | -9.13178 | 333 ft | 3 kts | 57° |
| 2026-05-05 17:22 | 38.77118 | -9.13203 | 335 ft | 1 kts | 348° |
| 2026-05-05 17:22 | 38.77115 | -9.13202 | 335 ft | 0 kts | 348° |
| 2026-05-05 17:24 | 38.77117 | -9.13203 | 338 ft | 1 kts | 348° |
| 2026-05-05 17:24 | 38.77134 | -9.13207 | 338 ft | 4 kts | 348° |
| 2026-05-05 17:24 | 38.77168 | -9.13216 | 338 ft | 6 kts | 348° |
| 2026-05-05 17:25 | 38.77215 | -9.13228 | 333 ft | 8 kts | 348° |
| 2026-05-05 17:25 | 38.77255 | -9.13239 | 338 ft | 10 kts | 348° |
| 2026-05-05 17:25 | 38.77326 | -9.13308 | 338 ft | 10 kts | 278° |
| 2026-05-05 17:25 | 38.77314 | -9.13390 | 346 ft | 9 kts | 258° |
| 2026-05-05 17:26 | 38.77303 | -9.13458 | 348 ft | 7 kts | 258° |
| 2026-05-05 17:26 | 38.77294 | -9.13514 | 347 ft | 6 kts | 258° |
| 2026-05-05 17:26 | 38.77284 | -9.13572 | 349 ft | 7 kts | 257° |
| 2026-05-05 17:26 | 38.77273 | -9.13638 | 354 ft | 8 kts | 258° |
| 2026-05-05 17:27 | 38.77259 | -9.13722 | 359 ft | 11 kts | 258° |
| 2026-05-05 17:27 | 38.77235 | -9.13820 | 355 ft | 12 kts | 238° |
| 2026-05-05 17:27 | 38.77164 | -9.13881 | 354 ft | 14 kts | 204° |
| 2026-05-05 17:27 | 38.77068 | -9.13932 | 353 ft | 16 kts | 203° |
| 2026-05-05 17:28 | 38.76950 | -9.13996 | 351 ft | 21 kts | 201° |
| 2026-05-05 17:28 | 38.76806 | -9.14071 | 347 ft | 22 kts | 202° |
| 2026-05-05 17:28 | 38.76699 | -9.14128 | 349 ft | 11 kts | 203° |
| 2026-05-05 17:28 | 38.76624 | -9.14169 | 337 ft | 8 kts | 202° |
| 2026-05-05 17:29 | 38.76595 | -9.14235 | 339 ft | 11 kts | 273° |
| 2026-05-05 17:29 | 38.76632 | -9.14344 | 334 ft | 15 kts | 310° |
| 2026-05-05 17:29 | 38.76712 | -9.14354 | 336 ft | 6 kts | 19° |
| 2026-05-05 17:29 | 38.76811 | -9.14305 | 339 ft | 41 kts | 21° |
| 2026-05-05 17:30 | 38.77276 | -9.14056 | 358 ft | 101 kts | 23° |
| 2026-05-05 17:30 | 38.78072 | -9.13625 | 371 ft | 147 kts | 22° |
| 2026-05-05 17:30 | 38.79113 | -9.13061 | 569 ft | 167 kts | 19° |
| 2026-05-05 17:30 | 38.80178 | -9.12449 | 1207 ft | 168 kts | 17° |
| 2026-05-05 17:31 | 38.81261 | -9.11858 | 1768 ft | 176 kts | 20° |
| 2026-05-05 17:31 | 38.82411 | -9.11048 | 2044 ft | 202 kts | 27° |
| 2026-05-05 17:31 | 38.83559 | -9.09807 | 2344 ft | 230 kts | 39° |
| 2026-05-05 17:31 | 38.84742 | -9.08301 | 2838 ft | 247 kts | 41° |
| 2026-05-05 17:32 | 38.85970 | -9.06711 | 3540 ft | 254 kts | 41° |
| 2026-05-05 17:32 | 38.87219 | -9.05084 | 4379 ft | 257 kts | 41° |
| 2026-05-05 17:32 | 38.88479 | -9.03438 | 5246 ft | 260 kts | 41° |
| 2026-05-05 17:32 | 38.89761 | -9.01765 | 6040 ft | 265 kts | 42° |
| 2026-05-05 17:33 | 38.91060 | -9.00072 | 6846 ft | 267 kts | 42° |
| 2026-05-05 17:33 | 38.92372 | -8.98363 | 7625 ft | 270 kts | 42° |
| 2026-05-05 17:33 | 38.93704 | -8.96627 | 8381 ft | 275 kts | 41° |
| 2026-05-05 17:33 | 38.95054 | -8.94866 | 9159 ft | 278 kts | 41° |
| 2026-05-05 17:34 | 38.96419 | -8.93085 | 9906 ft | 282 kts | 41° |
| 2026-05-05 17:34 | 38.97815 | -8.91271 | 10399 ft | 294 kts | 41° |
| 2026-05-05 17:34 | 38.99314 | -8.89332 | 10553 ft | 317 kts | 41° |
| 2026-05-05 17:34 | 39.00920 | -8.87248 | 10745 ft | 336 kts | 41° |
| 2026-05-05 17:35 | 39.02584 | -8.85076 | 11271 ft | 344 kts | 41° |
| 2026-05-05 17:35 | 39.04271 | -8.82867 | 11868 ft | 348 kts | 42° |
| 2026-05-05 17:35 | 39.05975 | -8.80629 | 12459 ft | 353 kts | 41° |
| 2026-05-05 17:35 | 39.07733 | -8.78317 | 13057 ft | 358 kts | 42° |
| 2026-05-05 17:36 | 39.09484 | -8.76016 | 13654 ft | 363 kts | 41° |
| 2026-05-05 17:36 | 39.11261 | -8.73682 | 14206 ft | 367 kts | 41° |
| 2026-05-05 17:36 | 39.13058 | -8.71320 | 14750 ft | 371 kts | 41° |
| 2026-05-05 17:36 | 39.14851 | -8.68966 | 15254 ft | 375 kts | 41° |
| 2026-05-05 17:37 | 39.16692 | -8.66549 | 15786 ft | 379 kts | 41° |
| 2026-05-05 17:37 | 39.17939 | -8.64910 | 16135 ft | 381 kts | 41° |
| 2026-05-05 17:37 | 39.20416 | -8.61651 | 16825 ft | 386 kts | 41° |
| 2026-05-05 17:37 | 39.22328 | -8.59132 | 17375 ft | 390 kts | 41° |
| 2026-05-05 17:38 | 39.24232 | -8.56618 | 17919 ft | 393 kts | 41° |
| 2026-05-05 17:38 | 39.26127 | -8.54111 | 18436 ft | 397 kts | 41° |
| 2026-05-05 17:38 | 39.28088 | -8.51517 | 18952 ft | 401 kts | 41° |
| 2026-05-05 17:38 | 39.30045 | -8.48932 | 19453 ft | 404 kts | 41° |
| 2026-05-05 17:39 | 39.32019 | -8.46326 | 19974 ft | 407 kts | 41° |
| 2026-05-05 17:39 | 39.34030 | -8.43729 | 20485 ft | 410 kts | 40° |
| 2026-05-05 17:39 | 39.36082 | -8.41146 | 20980 ft | 413 kts | 40° |
| 2026-05-05 17:39 | 39.38162 | -8.38561 | 21452 ft | 417 kts | 40° |
| 2026-05-05 17:40 | 39.40260 | -8.35955 | 21908 ft | 420 kts | 40° |
| 2026-05-05 17:40 | 39.42372 | -8.33321 | 22334 ft | 424 kts | 39° |
| 2026-05-05 17:40 | 39.44499 | -8.30658 | 22757 ft | 427 kts | 40° |
| 2026-05-05 17:40 | 39.46639 | -8.27966 | 23182 ft | 431 kts | 40° |
| 2026-05-05 17:41 | 39.48790 | -8.25246 | 23590 ft | 434 kts | 40° |
| 2026-05-05 17:41 | 39.50956 | -8.22501 | 23944 ft | 437 kts | 40° |
| 2026-05-05 17:41 | 39.53134 | -8.19737 | 24325 ft | 440 kts | 40° |
| 2026-05-05 17:41 | 39.55326 | -8.16953 | 24657 ft | 443 kts | 40° |
| 2026-05-05 17:42 | 39.57531 | -8.14151 | 25003 ft | 445 kts | 40° |
| 2026-05-05 17:42 | 39.59749 | -8.11335 | 25337 ft | 448 kts | 40° |
| 2026-05-05 17:42 | 39.61982 | -8.08502 | 25668 ft | 450 kts | 40° |
| 2026-05-05 17:42 | 39.64223 | -8.05655 | 25998 ft | 453 kts | 40° |
| 2026-05-05 17:43 | 39.66478 | -8.02784 | 26304 ft | 455 kts | 40° |
| 2026-05-05 17:43 | 39.68741 | -7.99898 | 26623 ft | 458 kts | 40° |
| 2026-05-05 17:43 | 39.71019 | -7.96992 | 26938 ft | 460 kts | 40° |
| 2026-05-05 17:43 | 39.73309 | -7.94069 | 27249 ft | 463 kts | 40° |
| 2026-05-05 17:44 | 39.75610 | -7.91128 | 27560 ft | 465 kts | 40° |
| 2026-05-05 17:44 | 39.77921 | -7.88172 | 27888 ft | 467 kts | 40° |
| 2026-05-05 17:44 | 39.80241 | -7.85202 | 28202 ft | 469 kts | 40° |
| 2026-05-05 17:44 | 39.82563 | -7.82224 | 28540 ft | 470 kts | 40° |
| 2026-05-05 17:45 | 39.84890 | -7.79237 | 28948 ft | 470 kts | 40° |
| 2026-05-05 17:45 | 39.87214 | -7.76253 | 29378 ft | 469 kts | 40° |
| 2026-05-05 17:45 | 39.89535 | -7.73267 | 29797 ft | 469 kts | 40° |
| 2026-05-05 17:45 | 39.91854 | -7.70279 | 30212 ft | 469 kts | 40° |
| 2026-05-05 17:46 | 39.94171 | -7.67290 | 30559 ft | 469 kts | 40° |
| 2026-05-05 17:46 | 39.96490 | -7.64302 | 30922 ft | 469 kts | 40° |
| 2026-05-05 17:46 | 39.98838 | -7.61275 | 31312 ft | 468 kts | 40° |
| 2026-05-05 17:46 | 40.01154 | -7.58286 | 31695 ft | 468 kts | 40° |
| 2026-05-05 17:47 | 40.03466 | -7.55296 | 32091 ft | 468 kts | 40° |
| 2026-05-05 17:47 | 40.05773 | -7.52307 | 32484 ft | 467 kts | 40° |
| 2026-05-05 17:47 | 40.08080 | -7.49318 | 32851 ft | 467 kts | 40° |
| 2026-05-05 17:47 | 40.10380 | -7.46337 | 33204 ft | 467 kts | 40° |
| 2026-05-05 17:48 | 40.12683 | -7.43346 | 33555 ft | 467 kts | 40° |
| 2026-05-05 17:48 | 40.14983 | -7.40352 | 33930 ft | 466 kts | 40° |
| 2026-05-05 17:48 | 40.17280 | -7.37356 | 34234 ft | 466 kts | 40° |
| 2026-05-05 17:48 | 40.19578 | -7.34363 | 34527 ft | 466 kts | 40° |
| 2026-05-05 17:49 | 40.21874 | -7.31369 | 34814 ft | 466 kts | 40° |
| 2026-05-05 17:49 | 40.24165 | -7.28375 | 35092 ft | 465 kts | 40° |
| 2026-05-05 17:49 | 40.26453 | -7.25383 | 35407 ft | 464 kts | 40° |
| 2026-05-05 17:49 | 40.28730 | -7.22407 | 35706 ft | 463 kts | 40° |
| 2026-05-05 17:50 | 40.31008 | -7.19425 | 35944 ft | 463 kts | 40° |
| 2026-05-05 17:50 | 40.35601 | -7.13405 | 36011 ft | 472 kts | 40° |
| 2026-05-05 17:51 | 40.40273 | -7.07275 | 36009 ft | 476 kts | 41° |
| 2026-05-05 17:51 | 40.44954 | -7.01102 | 36014 ft | 477 kts | 41° |
| 2026-05-05 17:52 | 40.49642 | -6.94909 | 36012 ft | 477 kts | 41° |
| 2026-05-05 17:52 | 40.53533 | -6.89767 | 36013 ft | 478 kts | 41° |
| 2026-05-05 17:53 | 40.58224 | -6.83554 | 36029 ft | 478 kts | 41° |
| 2026-05-05 17:53 | 40.62912 | -6.77331 | 36028 ft | 479 kts | 41° |
| 2026-05-05 17:54 | 40.67601 | -6.71097 | 36030 ft | 479 kts | 41° |
| 2026-05-05 17:54 | 40.72316 | -6.64806 | 36045 ft | 479 kts | 41° |
| 2026-05-05 17:55 | 40.76975 | -6.58593 | 36042 ft | 479 kts | 41° |
| 2026-05-05 17:55 | 40.81652 | -6.52346 | 36031 ft | 478 kts | 41° |
| 2026-05-05 17:56 | 40.86312 | -6.46087 | 36049 ft | 477 kts | 41° |
| 2026-05-05 17:56 | 40.90962 | -6.39819 | 36039 ft | 477 kts | 41° |
| 2026-05-05 17:57 | 40.95637 | -6.33518 | 36033 ft | 477 kts | 41° |
| 2026-05-05 17:57 | 41.00272 | -6.27309 | 36045 ft | 476 kts | 39° |
| 2026-05-05 17:58 | 41.05124 | -6.21403 | 36036 ft | 473 kts | 36° |
| 2026-05-05 17:58 | 41.10120 | -6.15643 | 36030 ft | 473 kts | 36° |
| 2026-05-05 17:59 | 41.15051 | -6.09869 | 36027 ft | 473 kts | 37° |
| 2026-05-05 17:59 | 41.19901 | -6.04045 | 36048 ft | 474 kts | 37° |
| 2026-05-05 18:00 | 41.24799 | -5.98122 | 36008 ft | 472 kts | 37° |
| 2026-05-05 18:00 | 41.29637 | -5.92291 | 36006 ft | 473 kts | 37° |
| 2026-05-05 18:01 | 41.34549 | -5.86372 | 36016 ft | 473 kts | 37° |
| 2026-05-05 18:01 | 41.39428 | -5.80484 | 36012 ft | 473 kts | 37° |
| 2026-05-05 18:02 | 41.44304 | -5.74585 | 36025 ft | 473 kts | 37° |
| 2026-05-05 18:02 | 41.49169 | -5.68673 | 36038 ft | 473 kts | 37° |
| 2026-05-05 18:03 | 41.54352 | -5.63433 | 36026 ft | 462 kts | 22° |
| 2026-05-05 18:03 | 41.60159 | -5.59984 | 36020 ft | 456 kts | 16° |
| 2026-05-05 18:04 | 41.66009 | -5.56678 | 36028 ft | 457 kts | 17° |
| 2026-05-05 18:04 | 41.71856 | -5.53369 | 36024 ft | 456 kts | 17° |
| 2026-05-05 18:05 | 41.77700 | -5.50054 | 36019 ft | 456 kts | 17° |
| 2026-05-05 18:05 | 41.83543 | -5.46732 | 36033 ft | 456 kts | 17° |
| 2026-05-05 18:06 | 41.89391 | -5.43410 | 36044 ft | 456 kts | 17° |
| 2026-05-05 18:06 | 41.95239 | -5.40083 | 36033 ft | 456 kts | 17° |
| 2026-05-05 18:07 | 42.01088 | -5.36746 | 36034 ft | 456 kts | 17° |
| 2026-05-05 18:07 | 42.06935 | -5.33406 | 36017 ft | 456 kts | 17° |
| 2026-05-05 18:08 | 42.12792 | -5.30051 | 36035 ft | 458 kts | 18° |
| 2026-05-05 18:08 | 42.18659 | -5.26684 | 36023 ft | 458 kts | 18° |
| 2026-05-05 18:09 | 42.24531 | -5.23308 | 36019 ft | 459 kts | 18° |
| 2026-05-05 18:09 | 42.30398 | -5.19930 | 36035 ft | 459 kts | 18° |
| 2026-05-05 18:10 | 42.36268 | -5.16531 | 36029 ft | 459 kts | 19° |
| 2026-05-05 18:10 | 42.42136 | -5.13127 | 36022 ft | 459 kts | 19° |
| 2026-05-05 18:11 | 42.48003 | -5.09727 | 36019 ft | 458 kts | 18° |
| 2026-05-05 18:11 | 42.53869 | -5.06327 | 36033 ft | 458 kts | 19° |
| 2026-05-05 18:12 | 42.59733 | -5.02913 | 36027 ft | 458 kts | 19° |
| 2026-05-05 18:12 | 42.65585 | -4.99495 | 36024 ft | 458 kts | 19° |
| 2026-05-05 18:13 | 42.71434 | -4.96076 | 36023 ft | 457 kts | 19° |
| 2026-05-05 18:13 | 42.77275 | -4.92652 | 36029 ft | 458 kts | 19° |
| 2026-05-05 18:14 | 42.83134 | -4.89205 | 36019 ft | 458 kts | 19° |
| 2026-05-05 18:14 | 42.88993 | -4.85762 | 36017 ft | 459 kts | 19° |
| 2026-05-05 18:15 | 42.94860 | -4.82307 | 36034 ft | 459 kts | 19° |
| 2026-05-05 18:15 | 43.00727 | -4.78840 | 36041 ft | 459 kts | 19° |
| 2026-05-05 18:16 | 43.06592 | -4.75366 | 36038 ft | 459 kts | 19° |
| 2026-05-05 18:16 | 43.12458 | -4.71884 | 36041 ft | 460 kts | 19° |
| 2026-05-05 18:17 | 43.18316 | -4.68397 | 36056 ft | 459 kts | 20° |
| 2026-05-05 18:17 | 43.24177 | -4.64900 | 36052 ft | 459 kts | 20° |
| 2026-05-05 18:18 | 43.30040 | -4.61404 | 36052 ft | 459 kts | 20° |
| 2026-05-05 18:18 | 43.35898 | -4.57902 | 36067 ft | 459 kts | 20° |
| 2026-05-05 18:19 | 43.41747 | -4.54394 | 36059 ft | 459 kts | 20° |
| 2026-05-05 18:19 | 43.47637 | -4.50851 | 36048 ft | 459 kts | 20° |
| 2026-05-05 18:20 | 43.53457 | -4.47347 | 36048 ft | 460 kts | 20° |
| 2026-05-05 18:20 | 43.59359 | -4.43790 | 36051 ft | 460 kts | 21° |
| 2026-05-05 18:21 | 43.65221 | -4.40243 | 36049 ft | 460 kts | 21° |
| 2026-05-05 18:21 | 43.71077 | -4.36700 | 36042 ft | 460 kts | 21° |
| 2026-05-05 18:22 | 43.76102 | -4.33642 | 36044 ft | 460 kts | 21° |
| 2026-05-05 18:22 | 43.81001 | -4.30654 | 36042 ft | 460 kts | 21° |
| 2026-05-05 18:23 | 43.86808 | -4.27116 | 36040 ft | 459 kts | 21° |
| 2026-05-05 18:23 | 43.92655 | -4.23549 | 36032 ft | 459 kts | 21° |
| 2026-05-05 18:24 | 43.98500 | -4.19972 | 36033 ft | 459 kts | 21° |
| 2026-05-05 18:24 | 44.04344 | -4.16387 | 36021 ft | 459 kts | 21° |
| 2026-05-05 18:25 | 44.10183 | -4.12799 | 36025 ft | 459 kts | 21° |
| 2026-05-05 18:25 | 44.16026 | -4.09192 | 36027 ft | 459 kts | 22° |
| 2026-05-05 18:26 | 44.21859 | -4.05589 | 36026 ft | 458 kts | 22° |
| 2026-05-05 18:26 | 44.26737 | -4.02572 | 36022 ft | 458 kts | 22° |
| 2026-05-05 18:27 | 44.32601 | -3.99118 | 36017 ft | 456 kts | 15° |
| 2026-05-05 18:27 | 44.38787 | -3.97399 | 36009 ft | 453 kts | 7° |
| 2026-05-05 18:28 | 44.47875 | -3.95329 | 36014 ft | 453 kts | 7° |
| 2026-05-05 18:28 | 44.54094 | -3.93894 | 36008 ft | 453 kts | 7° |
| 2026-05-05 18:29 | 44.60314 | -3.92456 | 36012 ft | 452 kts | 7° |
| 2026-05-05 18:29 | 44.66519 | -3.91018 | 36009 ft | 452 kts | 7° |
| 2026-05-05 18:30 | 44.72718 | -3.89582 | 36003 ft | 451 kts | 7° |
| 2026-05-05 18:30 | 44.78913 | -3.88148 | 36006 ft | 451 kts | 8° |
| 2026-05-05 18:31 | 44.85106 | -3.86710 | 36005 ft | 451 kts | 7° |
| 2026-05-05 18:31 | 44.91298 | -3.85263 | 36000 ft | 451 kts | 8° |
| 2026-05-05 18:32 | 44.97487 | -3.83814 | 36003 ft | 451 kts | 8° |
| 2026-05-05 18:32 | 45.03664 | -3.82368 | 35999 ft | 450 kts | 8° |
| 2026-05-05 18:33 | 45.09858 | -3.80919 | 35992 ft | 451 kts | 8° |
| 2026-05-05 18:33 | 45.16047 | -3.79458 | 35994 ft | 451 kts | 8° |
| 2026-05-05 18:34 | 45.22238 | -3.78004 | 35994 ft | 451 kts | 8° |
| 2026-05-05 18:34 | 45.28419 | -3.76546 | 35993 ft | 451 kts | 8° |
| 2026-05-05 18:35 | 45.34612 | -3.75067 | 35995 ft | 450 kts | 8° |
| 2026-05-05 18:35 | 45.40787 | -3.73600 | 35993 ft | 450 kts | 8° |
| 2026-05-05 18:36 | 45.46972 | -3.72134 | 35986 ft | 450 kts | 8° |
| 2026-05-05 18:36 | 45.53141 | -3.70671 | 35984 ft | 450 kts | 8° |
| 2026-05-05 18:37 | 45.59320 | -3.69186 | 35982 ft | 450 kts | 9° |
| 2026-05-05 18:37 | 45.65485 | -3.67708 | 35978 ft | 450 kts | 9° |
| 2026-05-05 18:38 | 45.71662 | -3.66226 | 35978 ft | 449 kts | 8° |
| 2026-05-05 18:38 | 45.77831 | -3.64750 | 35979 ft | 449 kts | 9° |
| 2026-05-05 18:39 | 45.83994 | -3.63265 | 35979 ft | 449 kts | 9° |
| 2026-05-05 18:39 | 45.90153 | -3.61776 | 35972 ft | 449 kts | 9° |
| 2026-05-05 18:40 | 45.96304 | -3.60295 | 35968 ft | 448 kts | 9° |
| 2026-05-05 18:40 | 46.02458 | -3.58802 | 35968 ft | 448 kts | 9° |
| 2026-05-05 18:41 | 46.08610 | -3.57306 | 35971 ft | 448 kts | 9° |
| 2026-05-05 18:41 | 46.14763 | -3.55805 | 35964 ft | 449 kts | 9° |
| 2026-05-05 18:42 | 46.20914 | -3.54302 | 35963 ft | 449 kts | 9° |
| 2026-05-05 18:42 | 46.27076 | -3.52794 | 35961 ft | 449 kts | 9° |
| 2026-05-05 18:43 | 46.33237 | -3.51273 | 35956 ft | 449 kts | 10° |
| 2026-05-05 18:43 | 46.39400 | -3.49756 | 35959 ft | 449 kts | 10° |
| 2026-05-05 18:44 | 46.45565 | -3.48247 | 35958 ft | 449 kts | 9° |
| 2026-05-05 18:44 | 46.51724 | -3.46733 | 35958 ft | 449 kts | 10° |
| 2026-05-05 18:45 | 46.57928 | -3.45197 | 35958 ft | 449 kts | 10° |
| 2026-05-05 18:45 | 46.64084 | -3.43661 | 35964 ft | 449 kts | 10° |
| 2026-05-05 18:46 | 46.70236 | -3.42129 | 35964 ft | 448 kts | 10° |
| 2026-05-05 18:46 | 46.76385 | -3.40591 | 35964 ft | 448 kts | 10° |
| 2026-05-05 18:47 | 46.82532 | -3.39051 | 35961 ft | 448 kts | 10° |
| 2026-05-05 18:47 | 46.88677 | -3.37513 | 35962 ft | 448 kts | 10° |
| 2026-05-05 18:48 | 46.94814 | -3.35976 | 35959 ft | 448 kts | 10° |
| 2026-05-05 18:48 | 47.00950 | -3.34429 | 35967 ft | 447 kts | 10° |
| 2026-05-05 18:49 | 47.07080 | -3.32883 | 35967 ft | 447 kts | 10° |
| 2026-05-05 18:49 | 47.13205 | -3.31340 | 35967 ft | 446 kts | 10° |
| 2026-05-05 18:50 | 47.19326 | -3.29791 | 35966 ft | 446 kts | 10° |
| 2026-05-05 18:50 | 47.25448 | -3.28247 | 35955 ft | 447 kts | 10° |
| 2026-05-05 18:51 | 47.31595 | -3.26683 | 35955 ft | 448 kts | 11° |
| 2026-05-05 18:51 | 47.37741 | -3.25104 | 35952 ft | 448 kts | 10° |
| 2026-05-05 18:52 | 47.43889 | -3.23520 | 35957 ft | 448 kts | 10° |
| 2026-05-05 18:52 | 47.50039 | -3.21942 | 35968 ft | 448 kts | 10° |
| 2026-05-05 18:53 | 47.56184 | -3.20374 | 35974 ft | 448 kts | 10° |
| 2026-05-05 18:53 | 47.62333 | -3.18791 | 35980 ft | 448 kts | 10° |
| 2026-05-05 18:54 | 47.68481 | -3.17201 | 35982 ft | 448 kts | 10° |
| 2026-05-05 18:54 | 47.74536 | -3.15086 | 35979 ft | 447 kts | 22° |
| 2026-05-05 18:55 | 47.80012 | -3.10769 | 35979 ft | 446 kts | 31° |
| 2026-05-05 18:55 | 47.85399 | -3.06070 | 35971 ft | 446 kts | 31° |
| 2026-05-05 18:56 | 47.90723 | -3.01432 | 35969 ft | 446 kts | 31° |
| 2026-05-05 18:56 | 47.96107 | -2.96726 | 35966 ft | 446 kts | 31° |
| 2026-05-05 18:57 | 48.01458 | -2.92032 | 35961 ft | 446 kts | 31° |
| 2026-05-05 18:57 | 48.06816 | -2.87318 | 35956 ft | 447 kts | 31° |
| 2026-05-05 18:58 | 48.12173 | -2.82588 | 35960 ft | 448 kts | 31° |
| 2026-05-05 18:58 | 48.17537 | -2.77838 | 35964 ft | 448 kts | 31° |
| 2026-05-05 18:59 | 48.22900 | -2.73072 | 35956 ft | 448 kts | 31° |
| 2026-05-05 18:59 | 48.28270 | -2.68305 | 35958 ft | 448 kts | 31° |
| 2026-05-05 19:00 | 48.32742 | -2.64329 | 35959 ft | 449 kts | 31° |
| 2026-05-05 19:00 | 48.38116 | -2.59531 | 35962 ft | 449 kts | 31° |
| 2026-05-05 19:01 | 48.43485 | -2.54716 | 35952 ft | 449 kts | 32° |
| 2026-05-05 19:01 | 48.49102 | -2.50558 | 35947 ft | 451 kts | 23° |
| 2026-05-05 19:02 | 48.54919 | -2.46958 | 35946 ft | 452 kts | 23° |
| 2026-05-05 19:02 | 48.60730 | -2.43332 | 35948 ft | 452 kts | 23° |
| 2026-05-05 19:03 | 48.66554 | -2.39701 | 35946 ft | 453 kts | 23° |
| 2026-05-05 19:03 | 48.72382 | -2.36067 | 35952 ft | 453 kts | 23° |
| 2026-05-05 19:04 | 48.78216 | -2.32417 | 35956 ft | 453 kts | 23° |
| 2026-05-05 19:04 | 48.84044 | -2.28763 | 35959 ft | 453 kts | 23° |
| 2026-05-05 19:05 | 48.89863 | -2.25101 | 35952 ft | 453 kts | 23° |
| 2026-05-05 19:05 | 48.95685 | -2.21418 | 35955 ft | 453 kts | 23° |
| 2026-05-05 19:06 | 49.01509 | -2.17734 | 35962 ft | 453 kts | 24° |
| 2026-05-05 19:06 | 49.05001 | -2.15525 | 35958 ft | 454 kts | 24° |
| 2026-05-05 19:07 | 49.08440 | -2.13337 | 35949 ft | 454 kts | 24° |
| 2026-05-05 19:07 | 49.14254 | -2.09641 | 35959 ft | 454 kts | 24° |
| 2026-05-05 19:08 | 49.20082 | -2.05929 | 35965 ft | 454 kts | 24° |
| 2026-05-05 19:08 | 49.25701 | -2.01588 | 35956 ft | 452 kts | 30° |
| 2026-05-05 19:09 | 49.31205 | -1.96918 | 35948 ft | 452 kts | 30° |
| 2026-05-05 19:09 | 49.36709 | -1.92250 | 35959 ft | 452 kts | 30° |
| 2026-05-05 19:10 | 49.42346 | -1.87858 | 35960 ft | 453 kts | 21° |
| 2026-05-05 19:10 | 49.48275 | -1.84590 | 35956 ft | 453 kts | 20° |
| 2026-05-05 19:11 | 49.54210 | -1.81346 | 35947 ft | 452 kts | 20° |
| 2026-05-05 19:11 | 49.60143 | -1.78104 | 35957 ft | 452 kts | 20° |
| 2026-05-05 19:12 | 49.66067 | -1.74841 | 35463 ft | 452 kts | 20° |
| 2026-05-05 19:12 | 49.69024 | -1.73207 | 35067 ft | 451 kts | 20° |
| 2026-05-05 19:12 | 49.71975 | -1.71577 | 34681 ft | 450 kts | 21° |
| 2026-05-05 19:13 | 49.74922 | -1.69949 | 34287 ft | 449 kts | 20° |
| 2026-05-05 19:13 | 49.77866 | -1.68320 | 33897 ft | 449 kts | 20° |
| 2026-05-05 19:13 | 49.80808 | -1.66693 | 33460 ft | 449 kts | 20° |
| 2026-05-05 19:13 | 49.83751 | -1.65062 | 33012 ft | 449 kts | 20° |
| 2026-05-05 19:14 | 49.86696 | -1.63425 | 32591 ft | 450 kts | 20° |
| 2026-05-05 19:14 | 49.89643 | -1.61780 | 32154 ft | 450 kts | 20° |
| 2026-05-05 19:14 | 49.92568 | -1.60145 | 31731 ft | 448 kts | 20° |
| 2026-05-05 19:14 | 49.95501 | -1.58502 | 31310 ft | 446 kts | 20° |
| 2026-05-05 19:15 | 49.98410 | -1.56872 | 30846 ft | 443 kts | 20° |
| 2026-05-05 19:15 | 50.01301 | -1.55255 | 30404 ft | 441 kts | 20° |
| 2026-05-05 19:15 | 50.04182 | -1.53644 | 29943 ft | 439 kts | 20° |
| 2026-05-05 19:15 | 50.07044 | -1.52043 | 29419 ft | 435 kts | 20° |
| 2026-05-05 19:16 | 50.09884 | -1.50457 | 28919 ft | 432 kts | 20° |
| 2026-05-05 19:16 | 50.12697 | -1.48881 | 28417 ft | 428 kts | 20° |
| 2026-05-05 19:16 | 50.15485 | -1.47311 | 27924 ft | 424 kts | 20° |
| 2026-05-05 19:16 | 50.18244 | -1.45755 | 27441 ft | 420 kts | 20° |
| 2026-05-05 19:17 | 50.20983 | -1.44207 | 26962 ft | 417 kts | 20° |
| 2026-05-05 19:17 | 50.23706 | -1.42666 | 26492 ft | 415 kts | 19° |
| 2026-05-05 19:17 | 50.26409 | -1.41133 | 26056 ft | 411 kts | 19° |
| 2026-05-05 19:17 | 50.29092 | -1.39610 | 25898 ft | 408 kts | 19° |
| 2026-05-05 19:18 | 50.31767 | -1.38091 | 25648 ft | 409 kts | 19° |
| 2026-05-05 19:18 | 50.34422 | -1.36583 | 25208 ft | 404 kts | 20° |
| 2026-05-05 19:18 | 50.37052 | -1.35087 | 24765 ft | 400 kts | 20° |
| 2026-05-05 19:18 | 50.39655 | -1.33605 | 24332 ft | 396 kts | 20° |
| 2026-05-05 19:19 | 50.42236 | -1.32131 | 23911 ft | 393 kts | 19° |
| 2026-05-05 19:19 | 50.44800 | -1.30662 | 23476 ft | 391 kts | 19° |
| 2026-05-05 19:19 | 50.47353 | -1.29204 | 22979 ft | 389 kts | 19° |
| 2026-05-05 19:19 | 50.49894 | -1.27756 | 22486 ft | 387 kts | 19° |
| 2026-05-05 19:20 | 50.52420 | -1.26311 | 22007 ft | 385 kts | 19° |
| 2026-05-05 19:20 | 50.54959 | -1.24858 | 21527 ft | 383 kts | 19° |
| 2026-05-05 19:20 | 50.57455 | -1.23429 | 21058 ft | 380 kts | 19° |
| 2026-05-05 19:20 | 50.59933 | -1.22009 | 20597 ft | 378 kts | 19° |
| 2026-05-05 19:21 | 50.62392 | -1.20593 | 20145 ft | 375 kts | 20° |
| 2026-05-05 19:21 | 50.64834 | -1.19180 | 19700 ft | 372 kts | 20° |
| 2026-05-05 19:21 | 50.67252 | -1.17781 | 19259 ft | 369 kts | 20° |
| 2026-05-05 19:21 | 50.69643 | -1.16396 | 18830 ft | 365 kts | 20° |
| 2026-05-05 19:22 | 50.72020 | -1.15019 | 18397 ft | 362 kts | 20° |
| 2026-05-05 19:22 | 50.74381 | -1.13656 | 17939 ft | 360 kts | 20° |
| 2026-05-05 19:22 | 50.76725 | -1.12305 | 17451 ft | 357 kts | 20° |
| 2026-05-05 19:22 | 50.79052 | -1.10954 | 16978 ft | 355 kts | 20° |
| 2026-05-05 19:23 | 50.81361 | -1.09615 | 16507 ft | 352 kts | 20° |
| 2026-05-05 19:23 | 50.83652 | -1.08288 | 16046 ft | 349 kts | 20° |
| 2026-05-05 19:23 | 50.85927 | -1.06969 | 15591 ft | 347 kts | 20° |
| 2026-05-05 19:23 | 50.88187 | -1.05659 | 15137 ft | 345 kts | 20° |
| 2026-05-05 19:24 | 50.90433 | -1.04355 | 14695 ft | 343 kts | 20° |
| 2026-05-05 19:24 | 50.92662 | -1.03057 | 14257 ft | 341 kts | 20° |
| 2026-05-05 19:24 | 50.94878 | -1.01762 | 13827 ft | 338 kts | 20° |
| 2026-05-05 19:24 | 50.97080 | -1.00471 | 13352 ft | 336 kts | 20° |
| 2026-05-05 19:25 | 50.99236 | -0.99068 | 12874 ft | 334 kts | 27° |
| 2026-05-05 19:25 | 51.01166 | -0.97047 | 12404 ft | 332 kts | 39° |
| 2026-05-05 19:25 | 51.02790 | -0.94455 | 11928 ft | 330 kts | 47° |
| 2026-05-05 19:25 | 51.04307 | -0.91737 | 11486 ft | 328 kts | 47° |
| 2026-05-05 19:26 | 51.05821 | -0.89035 | 11062 ft | 326 kts | 47° |
| 2026-05-05 19:26 | 51.07306 | -0.86395 | 10928 ft | 314 kts | 47° |
| 2026-05-05 19:26 | 51.08725 | -0.83876 | 10941 ft | 298 kts | 47° |
| 2026-05-05 19:26 | 51.10087 | -0.81453 | 10946 ft | 292 kts | 47° |
| 2026-05-05 19:27 | 51.11434 | -0.79045 | 10947 ft | 291 kts | 47° |
| 2026-05-05 19:27 | 51.12778 | -0.76637 | 10947 ft | 291 kts | 47° |
| 2026-05-05 19:27 | 51.14121 | -0.74227 | 10947 ft | 291 kts | 47° |
| 2026-05-05 19:27 | 51.15463 | -0.71819 | 10947 ft | 291 kts | 47° |
| 2026-05-05 19:28 | 51.16823 | -0.69385 | 10946 ft | 291 kts | 47° |
| 2026-05-05 19:28 | 51.18167 | -0.66978 | 10947 ft | 290 kts | 47° |
| 2026-05-05 19:28 | 51.19482 | -0.64618 | 10933 ft | 281 kts | 47° |
| 2026-05-05 19:28 | 51.20786 | -0.62277 | 10576 ft | 283 kts | 47° |
| 2026-05-05 19:29 | 51.22102 | -0.59912 | 10142 ft | 286 kts | 47° |
| 2026-05-05 19:29 | 51.23426 | -0.57525 | 9695 ft | 289 kts | 47° |
| 2026-05-05 19:29 | 51.24743 | -0.55147 | 9237 ft | 280 kts | 47° |
| 2026-05-05 19:29 | 51.26005 | -0.52856 | 8824 ft | 270 kts | 47° |
| 2026-05-05 19:30 | 51.27220 | -0.50640 | 8455 ft | 260 kts | 47° |
| 2026-05-05 19:30 | 51.28389 | -0.48500 | 8094 ft | 251 kts | 47° |
| 2026-05-05 19:30 | 51.29503 | -0.46451 | 7939 ft | 239 kts | 47° |
| 2026-05-05 19:30 | 51.30761 | -0.44747 | 7944 ft | 237 kts | 23° |
| 2026-05-05 19:31 | 51.32384 | -0.44299 | 7959 ft | 237 kts | 352° |
| 2026-05-05 19:31 | 51.33892 | -0.45288 | 7944 ft | 238 kts | 321° |
| 2026-05-05 19:31 | 51.34853 | -0.47424 | 7952 ft | 241 kts | 290° |
| 2026-05-05 19:31 | 51.35156 | -0.50072 | 7952 ft | 244 kts | 277° |
| 2026-05-05 19:32 | 51.35297 | -0.52777 | 7951 ft | 244 kts | 276° |
| 2026-05-05 19:32 | 51.35379 | -0.54575 | 7951 ft | 244 kts | 276° |
| 2026-05-05 19:32 | 51.35539 | -0.58244 | 7465 ft | 248 kts | 276° |
| 2026-05-05 19:32 | 51.35618 | -0.60058 | 7193 ft | 245 kts | 276° |
| 2026-05-05 19:33 | 51.35734 | -0.62752 | 6805 ft | 241 kts | 276° |
| 2026-05-05 19:33 | 51.35847 | -0.65414 | 6404 ft | 239 kts | 276° |
| 2026-05-05 19:33 | 51.35958 | -0.68061 | 5988 ft | 238 kts | 276° |
| 2026-05-05 19:33 | 51.36068 | -0.70696 | 5574 ft | 237 kts | 276° |
| 2026-05-05 19:34 | 51.36176 | -0.73330 | 5171 ft | 238 kts | 276° |
| 2026-05-05 19:34 | 51.36281 | -0.75959 | 4750 ft | 236 kts | 276° |
| 2026-05-05 19:34 | 51.36385 | -0.78586 | 4349 ft | 238 kts | 276° |
| 2026-05-05 19:35 | 51.36600 | -0.83863 | 4005 ft | 236 kts | 276° |
| 2026-05-05 19:35 | 51.36708 | -0.86453 | 4001 ft | 228 kts | 276° |
| 2026-05-05 19:35 | 51.36804 | -0.88904 | 4000 ft | 213 kts | 276° |
| 2026-05-05 19:35 | 51.36972 | -0.91152 | 4030 ft | 195 kts | 292° |
| 2026-05-05 19:36 | 51.37767 | -0.92773 | 3996 ft | 184 kts | 332° |
| 2026-05-05 19:36 | 51.38985 | -0.93268 | 4018 ft | 182 kts | 357° |
| 2026-05-05 19:36 | 51.40246 | -0.93334 | 4012 ft | 182 kts | 0° |
| 2026-05-05 19:36 | 51.41472 | -0.92973 | 3998 ft | 180 kts | 30° |
| 2026-05-05 19:37 | 51.42315 | -0.91507 | 4025 ft | 183 kts | 57° |
| 2026-05-05 19:37 | 51.42935 | -0.89727 | 4013 ft | 183 kts | 60° |
| 2026-05-05 19:37 | 51.43528 | -0.87891 | 4010 ft | 183 kts | 61° |
| 2026-05-05 19:37 | 51.44107 | -0.86079 | 4009 ft | 183 kts | 61° |
| 2026-05-05 19:38 | 51.44693 | -0.84239 | 4008 ft | 183 kts | 61° |
| 2026-05-05 19:38 | 51.45278 | -0.82404 | 3662 ft | 185 kts | 61° |
| 2026-05-05 19:38 | 51.45860 | -0.80578 | 3258 ft | 184 kts | 61° |
| 2026-05-05 19:38 | 51.46439 | -0.78775 | 3008 ft | 179 kts | 61° |
| 2026-05-05 19:39 | 51.47012 | -0.76997 | 3008 ft | 179 kts | 61° |
| 2026-05-05 19:39 | 51.47536 | -0.75180 | 3007 ft | 181 kts | 73° |
| 2026-05-05 19:39 | 51.47626 | -0.73156 | 3005 ft | 183 kts | 87° |
| 2026-05-05 19:39 | 51.47636 | -0.71081 | 2848 ft | 183 kts | 87° |
| 2026-05-05 19:40 | 51.47647 | -0.69017 | 2630 ft | 182 kts | 87° |
| 2026-05-05 19:40 | 51.47657 | -0.67035 | 2395 ft | 170 kts | 87° |
| 2026-05-05 19:40 | 51.47667 | -0.65186 | 2178 ft | 163 kts | 87° |
| 2026-05-05 19:40 | 51.47677 | -0.63379 | 1954 ft | 161 kts | 88° |
| 2026-05-05 19:41 | 51.47687 | -0.61592 | 1739 ft | 160 kts | 88° |
| 2026-05-05 19:41 | 51.47696 | -0.59819 | 1510 ft | 158 kts | 88° |
| 2026-05-05 19:41 | 51.47705 | -0.58056 | 1306 ft | 158 kts | 88° |
| 2026-05-05 19:41 | 51.47714 | -0.56296 | 1083 ft | 155 kts | 88° |
| 2026-05-05 19:42 | 51.47721 | -0.54649 | 863 ft | 142 kts | 88° |
| 2026-05-05 19:42 | 51.47723 | -0.53089 | 690 ft | 139 kts | 87° |
| 2026-05-05 19:42 | 51.47726 | -0.51550 | 504 ft | 137 kts | 87° |
| 2026-05-05 19:42 | 51.47726 | -0.50028 | 311 ft | 136 kts | 86° |
| 2026-05-05 19:43 | 51.47749 | -0.48511 | 133 ft | 136 kts | 86° |
| 2026-05-05 19:43 | 51.47761 | -0.47126 | 87 ft | 104 kts | 90° |
| 2026-05-05 19:43 | 51.47763 | -0.46238 | 87 ft | 65 kts | 89° |
| 2026-05-05 19:43 | 51.47760 | -0.45672 | 86 ft | 32 kts | 91° |
| 2026-05-05 19:44 | 51.47669 | -0.45478 | 86 ft | 18 kts | 176° |
| 2026-05-05 19:44 | 51.47603 | -0.45550 | 87 ft | 11 kts | 248° |
| 2026-05-05 19:44 | 51.47593 | -0.45681 | 88 ft | 13 kts | 268° |
| 2026-05-05 19:44 | 51.47592 | -0.45840 | 86 ft | 15 kts | 271° |
| 2026-05-05 19:45 | 51.47595 | -0.46026 | 87 ft | 18 kts | 271° |
| 2026-05-05 19:45 | 51.47595 | -0.46239 | 88 ft | 20 kts | 269° |
| 2026-05-05 19:45 | 51.47592 | -0.46473 | 86 ft | 22 kts | 269° |
| 2026-05-05 19:45 | 51.47591 | -0.46728 | 86 ft | 24 kts | 270° |
| 2026-05-05 19:46 | 51.47583 | -0.46968 | 87 ft | 23 kts | 268° |
| 2026-05-05 19:46 | 51.47582 | -0.47236 | 86 ft | 23 kts | 270° |
| 2026-05-05 19:46 | 51.47580 | -0.47504 | 87 ft | 25 kts | 270° |
| 2026-05-05 19:46 | 51.47580 | -0.47741 | 90 ft | 21 kts | 270° |
| 2026-05-05 19:47 | 51.47580 | -0.47976 | 88 ft | 21 kts | 269° |
| 2026-05-05 19:47 | 51.47580 | -0.48207 | 88 ft | 20 kts | 270° |
| 2026-05-05 19:47 | 51.47577 | -0.48394 | 86 ft | 15 kts | 263° |
| 2026-05-05 19:47 | 51.47493 | -0.48475 | 86 ft | 17 kts | 181° |
| 2026-05-05 19:48 | 51.47380 | -0.48475 | 86 ft | 16 kts | 179° |
| 2026-05-05 19:48 | 51.47280 | -0.48473 | 86 ft | 15 kts | 179° |
| 2026-05-05 19:48 | 51.47185 | -0.48472 | 88 ft | 13 kts | 180° |
| 2026-05-05 19:48 | 51.47118 | -0.48474 | 86 ft | 8 kts | 188° |
| 2026-05-05 19:49 | 51.47092 | -0.48550 | 88 ft | 7 kts | 258° |
| 2026-05-05 19:49 | 51.47090 | -0.48590 | 86 ft | 4 kts | 270° |
| 2026-05-05 19:49 | 51.47090 | -0.48597 | 86 ft | 0 kts | 269° |